createdAt,value
2022-09-22T00:01:37.556Z,8.00
2022-09-22T00:04:07.936Z,7.57
2022-09-22T00:06:38.875Z,5.93
2022-09-22T00:09:09.586Z,8.00
2022-09-22T00:11:40.689Z,7.28
2022-09-22T00:14:10.895Z,6.60
2022-09-22T00:16:42.106Z,5.00
2022-09-22T00:19:13.681Z,5.97
2022-09-22T00:21:41.586Z,5.40
2022-09-22T00:24:09.951Z,6.35
2022-09-22T00:26:40.138Z,6.28
2022-09-22T00:29:10.397Z,6.25
2022-09-22T00:31:40.722Z,4.90
2022-09-22T00:34:13.524Z,4.97
2022-09-22T00:36:41.548Z,6.80
2022-09-22T00:39:09.740Z,11.40
2022-09-22T00:41:41.990Z,6.00
2022-09-22T00:44:32.908Z,6.15
2022-09-22T00:47:04.645Z,5.50
2022-09-22T00:49:38.138Z,10.48
2022-09-22T00:52:06.751Z,5.35
2022-09-22T00:54:35.801Z,5.15
2022-09-22T00:57:09.789Z,9.18
2022-09-22T00:59:38.459Z,6.72
2022-09-22T01:02:07.226Z,5.97
2022-09-22T01:04:35.883Z,4.68
2022-09-22T01:07:27.156Z,5.50
2022-09-22T01:09:56.520Z,4.90
2022-09-22T01:12:27.973Z,6.80
2022-09-22T01:15:19.555Z,7.03
2022-09-22T01:17:59.313Z,8.40
2022-09-22T01:21:06.530Z,7.22
2022-09-22T01:24:03.092Z,5.47
2022-09-22T01:27:12.181Z,5.50
2022-09-22T01:30:07.319Z,6.47
2022-09-22T01:32:44.125Z,4.85
2022-09-22T01:35:20.895Z,4.95
2022-09-22T01:37:59.775Z,6.88
2022-09-22T01:40:34.670Z,5.15
2022-09-22T01:43:10.611Z,8.00
2022-09-22T01:45:43.146Z,5.18
2022-09-22T01:48:15.407Z,5.35
2022-09-22T01:50:47.582Z,5.57
2022-09-22T01:53:20.043Z,8.68
2022-09-22T01:55:56.363Z,6.47
2022-09-22T01:58:30.630Z,4.68
2022-09-22T02:01:04.489Z,8.55
2022-09-22T02:03:39.066Z,9.52
2022-09-22T02:06:11.862Z,7.80
2022-09-22T02:08:46.262Z,4.78
2022-09-22T02:11:16.732Z,5.50
2022-09-22T02:13:47.748Z,8.52
2022-09-22T02:16:19.823Z,5.38
2022-09-22T02:18:51.999Z,5.97
2022-09-22T02:21:21.985Z,4.85
2022-09-22T02:23:50.398Z,5.18
2022-09-22T02:26:24.075Z,9.20
2022-09-22T02:28:55.060Z,5.28
2022-09-22T02:31:29.508Z,4.65
2022-09-22T02:33:57.755Z,5.13
2022-09-22T02:36:44.554Z,4.65
2022-09-22T02:39:18.633Z,3.20
2022-09-22T02:41:58.649Z,4.40
2022-09-22T02:44:32.689Z,4.88
2022-09-22T02:47:08.894Z,6.30
2022-09-22T02:49:37.752Z,5.63
2022-09-22T02:52:10.292Z,4.05
2022-09-22T02:54:39.582Z,3.72
2022-09-22T02:57:07.823Z,4.70
2022-09-22T02:59:35.786Z,6.72
2022-09-22T03:02:08.570Z,5.63
2022-09-22T03:04:36.598Z,4.82
2022-09-22T03:07:05.083Z,5.28
2022-09-22T03:09:44.209Z,4.45
2022-09-22T03:13:14.577Z,4.75
2022-09-22T03:15:36.003Z,6.32
2022-09-22T03:18:05.734Z,4.50
2022-09-22T03:20:33.599Z,8.70
2022-09-22T03:23:04.263Z,4.68
2022-09-22T03:25:32.681Z,8.18
2022-09-22T03:28:00.754Z,4.30
2022-09-22T03:30:28.899Z,7.40
2022-09-22T03:32:58.815Z,4.68
2022-09-22T03:35:28.328Z,4.95
2022-09-22T03:37:56.352Z,5.57
2022-09-22T03:40:24.521Z,5.03
2022-09-22T03:42:52.561Z,4.65
2022-09-22T03:45:20.589Z,3.47
2022-09-22T03:47:48.546Z,5.53
2022-09-22T03:50:16.555Z,3.60
2022-09-22T03:52:46.211Z,8.43
2022-09-22T03:55:14.406Z,4.10
2022-09-22T03:57:43.852Z,3.55
2022-09-22T04:00:14.222Z,3.97
2022-09-22T04:02:42.439Z,4.45
2022-09-22T04:05:11.363Z,4.45
2022-09-22T04:07:39.452Z,4.53
2022-09-22T04:10:09.603Z,4.18
2022-09-22T04:12:39.615Z,3.05
2022-09-22T04:15:08.568Z,3.42
2022-09-22T04:17:37.231Z,5.63
2022-09-22T04:20:07.290Z,3.58
2022-09-22T04:22:35.765Z,5.97
2022-09-22T04:25:03.901Z,7.85
2022-09-22T04:27:33.492Z,4.75
2022-09-22T04:30:02.279Z,3.22
2022-09-22T04:32:30.396Z,4.93
2022-09-22T04:34:58.490Z,3.60
2022-09-22T04:37:26.637Z,5.32
2022-09-22T04:39:55.606Z,3.85
2022-09-22T04:42:23.754Z,3.45
2022-09-22T04:44:53.060Z,5.28
2022-09-22T04:47:20.900Z,3.30
2022-09-22T04:49:48.805Z,4.97
2022-09-22T04:52:16.612Z,8.55
2022-09-22T04:54:47.041Z,7.00
2022-09-22T04:57:19.684Z,3.85
2022-09-22T04:59:49.107Z,3.83
2022-09-22T05:02:19.222Z,4.28
2022-09-22T05:04:47.801Z,8.38
2022-09-22T05:07:16.239Z,3.25
2022-09-22T05:09:44.346Z,5.22
2022-09-22T05:12:12.419Z,5.05
2022-09-22T05:14:40.766Z,8.38
2022-09-22T05:17:09.922Z,8.15
2022-09-22T05:19:39.614Z,7.13
2022-09-22T05:22:07.738Z,14.93
2022-09-22T05:24:35.611Z,13.95
2022-09-22T05:27:06.142Z,10.77
2022-09-22T05:29:34.308Z,10.50
2022-09-22T05:32:02.698Z,10.07
2022-09-22T05:34:31.309Z,10.70
2022-09-22T05:37:00.708Z,15.73
2022-09-22T05:39:28.966Z,9.23
2022-09-22T05:41:57.008Z,13.32
2022-09-22T05:44:25.279Z,13.05
2022-09-22T05:46:53.258Z,18.80
2022-09-22T05:49:21.574Z,12.30
2022-09-22T05:51:52.222Z,17.80
2022-09-22T05:54:23.494Z,14.63
2022-09-22T05:56:51.828Z,9.98
2022-09-22T05:59:19.993Z,15.90
2022-09-22T06:01:48.730Z,13.18
2022-09-22T06:04:16.953Z,11.50
2022-09-22T06:06:45.161Z,14.30
2022-09-22T06:09:16.472Z,10.43
2022-09-22T06:11:46.035Z,11.57
2022-09-22T06:14:14.035Z,11.57
2022-09-22T06:16:44.952Z,8.60
2022-09-22T06:19:13.013Z,9.20
2022-09-22T06:21:41.090Z,20.45
2022-09-22T06:24:09.094Z,16.95
2022-09-22T06:26:37.107Z,16.88
2022-09-22T06:29:10.923Z,17.20
2022-09-22T06:31:39.984Z,18.77
2022-09-22T06:34:08.500Z,15.15
2022-09-22T06:36:36.640Z,17.48
2022-09-22T06:39:05.735Z,11.15
2022-09-22T06:41:34.779Z,9.40
2022-09-22T06:44:03.425Z,5.45
2022-09-22T06:46:35.358Z,5.35
2022-09-22T06:49:03.316Z,3.45
2022-09-22T06:51:32.924Z,6.47
2022-09-22T06:54:02.232Z,8.38
2022-09-22T06:56:30.764Z,7.70
2022-09-22T06:59:10.026Z,11.25
2022-09-22T07:01:41.086Z,3.33
2022-09-22T07:04:09.860Z,2.33
2022-09-22T07:06:40.695Z,4.63
2022-09-22T07:09:09.541Z,3.83
2022-09-22T07:11:40.132Z,2.92
2022-09-22T07:14:10.385Z,1.98
2022-09-22T07:16:40.856Z,5.10
2022-09-22T07:19:09.060Z,3.17
2022-09-22T07:21:38.385Z,1.50
2022-09-22T07:24:08.866Z,1.85
2022-09-22T07:26:38.666Z,2.33
2022-09-22T07:29:11.607Z,2.65
2022-09-22T07:31:42.033Z,1.20
2022-09-22T07:34:10.741Z,1.73
2022-09-22T07:36:39.181Z,2.10
2022-09-22T07:39:10.463Z,3.70
2022-09-22T07:41:41.855Z,3.38
2022-09-22T07:44:29.027Z,5.75
2022-09-22T07:46:58.971Z,4.95
2022-09-22T07:49:28.520Z,2.75
2022-09-22T07:51:57.276Z,2.65
2022-09-22T07:54:26.924Z,3.30
2022-09-22T07:56:58.747Z,3.53
2022-09-22T07:59:27.713Z,1.95
2022-09-22T08:01:55.871Z,5.28
2022-09-22T08:04:27.091Z,3.08
2022-09-22T08:06:56.442Z,3.28
2022-09-22T08:09:26.078Z,9.82
2022-09-22T08:11:55.267Z,2.95
2022-09-22T08:14:24.102Z,3.03
2022-09-22T08:16:53.662Z,3.15
2022-09-22T08:19:25.478Z,1.83
2022-09-22T08:21:57.754Z,2.67
2022-09-22T08:24:25.675Z,2.85
2022-09-22T08:27:07.632Z,3.42
2022-09-22T08:29:35.858Z,2.53
2022-09-22T08:32:19.735Z,2.33
2022-09-22T08:34:50.476Z,3.17
2022-09-22T08:37:18.426Z,6.72
2022-09-22T08:39:46.529Z,6.40
2022-09-22T08:42:20.911Z,6.32
2022-09-22T08:44:57.811Z,7.93
2022-09-22T08:47:54.736Z,4.93
2022-09-22T08:50:49.541Z,3.22
2022-09-22T08:53:21.603Z,3.85
2022-09-22T08:56:00.689Z,3.05
2022-09-22T08:58:40.510Z,3.78
2022-09-22T09:01:21.752Z,3.80
2022-09-22T09:04:02.595Z,3.70
2022-09-22T09:06:40.209Z,2.78
2022-09-22T09:09:33.864Z,3.95
2022-09-22T09:12:13.809Z,3.33
2022-09-22T09:15:06.282Z,3.05
2022-09-22T09:17:37.521Z,2.85
2022-09-22T09:20:18.097Z,2.90
2022-09-22T09:22:52.921Z,10.15
2022-09-22T09:25:37.760Z,6.45
2022-09-22T09:28:08.500Z,4.22
2022-09-22T09:30:44.831Z,3.75
2022-09-22T09:33:23.500Z,3.30
2022-09-22T09:35:53.703Z,5.15
2022-09-22T09:38:29.734Z,3.58
2022-09-22T09:41:10.049Z,4.00
2022-09-22T09:43:43.060Z,4.03
2022-09-22T09:46:31.704Z,4.75
2022-09-22T09:49:09.154Z,2.72
2022-09-22T09:51:40.565Z,3.40
2022-09-22T09:54:16.908Z,2.72
2022-09-22T09:57:09.660Z,6.97
2022-09-22T10:00:05.337Z,3.38
2022-09-22T10:02:36.640Z,3.00
2022-09-22T10:05:08.763Z,2.65
2022-09-22T10:07:44.111Z,3.38
2022-09-22T10:10:34.259Z,3.53
2022-09-22T10:13:26.300Z,3.42
2022-09-22T10:16:18.467Z,1.65
2022-09-22T10:18:46.901Z,3.28
2022-09-22T10:21:16.761Z,1.85
2022-09-22T10:23:45.638Z,1.52
2022-09-22T10:26:21.740Z,1.77
2022-09-22T10:29:09.338Z,2.33
2022-09-22T10:31:38.583Z,4.07
2022-09-22T10:34:08.249Z,3.25
2022-09-22T10:36:44.716Z,1.77
2022-09-22T10:39:18.708Z,5.72
2022-09-22T10:41:49.760Z,3.17
2022-09-22T10:44:37.996Z,1.25
2022-09-22T10:47:33.379Z,1.60
2022-09-22T10:50:28.691Z,3.78
2022-09-22T10:53:05.825Z,8.25
2022-09-22T10:55:36.914Z,3.53
2022-09-22T10:58:28.697Z,5.63
2022-09-22T11:01:12.625Z,3.03
2022-09-22T11:04:17.488Z,6.47
2022-09-22T11:07:25.450Z,2.75
2022-09-22T11:10:31.728Z,2.97
2022-09-22T11:13:06.802Z,2.88
2022-09-22T11:15:55.964Z,2.85
2022-09-22T11:18:43.408Z,2.38
2022-09-22T11:21:21.971Z,2.20
2022-09-22T11:24:23.838Z,3.17
2022-09-22T11:26:53.934Z,5.70
2022-09-22T11:30:01.232Z,4.32
2022-09-22T11:32:55.696Z,6.72
2022-09-22T11:35:55.450Z,7.05
2022-09-22T11:38:46.448Z,2.25
2022-09-22T11:41:29.406Z,3.83
2022-09-22T11:44:15.042Z,5.95
2022-09-22T11:47:01.174Z,3.15
2022-09-22T11:49:47.461Z,5.18
2022-09-22T11:52:30.265Z,3.08
2022-09-22T11:55:15.137Z,4.72
2022-09-22T11:57:48.528Z,2.65
2022-09-22T12:00:19.388Z,2.13
2022-09-22T12:03:01.808Z,2.20
2022-09-22T12:05:39.419Z,1.05
2022-09-22T12:08:13.202Z,5.25
2022-09-22T12:10:44.665Z,2.80
2022-09-22T12:13:16.650Z,3.65
2022-09-22T12:15:58.857Z,4.60
2022-09-22T12:18:35.669Z,4.25
2022-09-22T12:21:16.518Z,2.15
2022-09-22T12:23:51.278Z,3.63
2022-09-22T12:26:28.710Z,2.88
2022-09-22T12:28:58.785Z,1.95
2022-09-22T12:31:36.167Z,2.65
2022-09-22T12:34:07.184Z,1.90
2022-09-22T12:36:39.609Z,2.10
2022-09-22T12:39:10.046Z,6.82
2022-09-22T12:41:50.110Z,1.38
2022-09-22T12:44:24.184Z,3.08
2022-09-22T12:46:53.285Z,10.32
2022-09-22T12:49:23.432Z,2.90
2022-09-22T12:51:53.335Z,6.22
2022-09-22T12:54:48.326Z,4.32
2022-09-22T12:57:26.627Z,5.45
2022-09-22T13:00:32.115Z,5.68
2022-09-22T13:03:02.637Z,2.03
2022-09-22T13:05:46.775Z,3.28
2022-09-22T13:08:47.061Z,1.15
2022-09-22T13:11:16.625Z,3.72
2022-09-22T13:13:46.848Z,2.42
2022-09-22T13:16:38.946Z,4.60
2022-09-22T13:19:14.861Z,1.80
2022-09-22T13:21:42.888Z,3.75
2022-09-22T13:24:25.116Z,3.45
2022-09-22T13:27:05.947Z,2.30
2022-09-22T13:29:34.535Z,1.13
2022-09-22T13:32:18.717Z,2.15
2022-09-22T13:34:47.016Z,2.67
2022-09-22T13:37:20.229Z,5.07
2022-09-22T13:39:50.502Z,3.20
2022-09-22T13:42:23.453Z,1.05
2022-09-22T13:45:01.223Z,3.55
2022-09-22T13:47:29.969Z,3.00
2022-09-22T13:50:04.451Z,3.10
2022-09-22T13:52:35.636Z,3.85
2022-09-22T13:55:10.167Z,3.33
2022-09-22T13:57:40.393Z,4.80
2022-09-22T14:00:17.678Z,5.63
2022-09-22T14:02:46.363Z,3.50
2022-09-22T14:05:20.471Z,3.05
2022-09-22T14:08:10.715Z,2.45
2022-09-22T14:10:38.220Z,2.40
2022-09-22T14:13:44.407Z,5.18
2022-09-22T14:16:21.255Z,6.32
2022-09-22T14:18:53.337Z,3.58
2022-09-22T14:21:22.547Z,1.10
2022-09-22T14:23:52.905Z,2.75
2022-09-22T14:26:33.674Z,2.22
2022-09-22T14:29:15.559Z,3.58
2022-09-22T14:31:47.258Z,2.67
2022-09-22T14:34:21.075Z,2.80
2022-09-22T14:36:52.293Z,1.75
2022-09-22T14:39:31.319Z,2.13
2022-09-22T14:42:09.382Z,3.50
2022-09-22T14:44:44.230Z,2.85
2022-09-22T14:47:27.654Z,2.10
2022-09-22T14:50:12.055Z,2.67
2022-09-22T14:52:47.367Z,1.83
2022-09-22T14:55:18.153Z,2.13
2022-09-22T14:57:50.057Z,3.58
2022-09-22T15:00:37.966Z,2.00
2022-09-22T15:03:16.632Z,1.70
2022-09-22T15:05:46.088Z,4.60
2022-09-22T15:08:18.166Z,2.42
2022-09-22T15:10:54.317Z,4.25
2022-09-22T15:13:30.699Z,2.95
2022-09-22T15:16:00.176Z,1.35
2022-09-22T15:18:30.743Z,3.95
2022-09-22T15:21:05.618Z,3.67
2022-09-22T15:23:43.869Z,3.28
2022-09-22T15:26:25.602Z,3.95
2022-09-22T15:28:55.148Z,3.50
2022-09-22T15:31:26.864Z,4.18
2022-09-22T15:33:56.192Z,3.17
2022-09-22T15:36:25.754Z,2.90
2022-09-22T15:39:00.591Z,8.48
2022-09-22T15:41:28.778Z,3.13
2022-09-22T15:43:56.968Z,2.97
2022-09-22T15:46:34.197Z,6.20
2022-09-22T15:49:05.623Z,5.43
2022-09-22T15:51:33.644Z,1.50
2022-09-22T15:54:01.754Z,3.30
2022-09-22T15:56:31.369Z,3.55
2022-09-22T15:59:01.218Z,3.10
2022-09-22T16:01:30.526Z,1.63
2022-09-22T16:04:04.742Z,5.38
2022-09-22T16:06:32.755Z,2.22
2022-09-22T16:09:00.748Z,3.63
2022-09-22T16:11:31.985Z,3.17
2022-09-22T16:14:03.771Z,2.50
2022-09-22T16:16:35.670Z,8.00
2022-09-22T16:19:03.890Z,5.38
2022-09-22T16:21:33.248Z,7.18
2022-09-22T16:24:03.962Z,5.85
2022-09-22T16:26:33.637Z,5.72
2022-09-22T16:29:01.982Z,4.22
2022-09-22T16:31:30.514Z,2.25
2022-09-22T16:34:02.093Z,6.22
2022-09-22T16:36:35.376Z,4.55
2022-09-22T16:39:04.617Z,5.18
2022-09-22T16:41:34.082Z,3.53
2022-09-22T16:44:03.195Z,2.85
2022-09-22T16:46:34.354Z,5.43
2022-09-22T16:49:05.875Z,6.85
2022-09-22T16:51:35.847Z,4.00
2022-09-22T16:54:05.572Z,3.28
2022-09-22T16:56:35.539Z,8.82
2022-09-22T16:59:05.539Z,5.85
2022-09-22T17:01:36.622Z,3.83
2022-09-22T17:04:08.114Z,4.85
2022-09-22T17:06:38.326Z,4.13
2022-09-22T17:09:07.699Z,6.03
2022-09-22T17:11:38.067Z,5.18
2022-09-22T17:14:12.121Z,4.97
2022-09-22T17:16:42.080Z,6.47
2022-09-22T17:19:13.086Z,6.53
2022-09-22T17:21:41.186Z,4.57
2022-09-22T17:24:10.136Z,6.20
2022-09-22T17:26:41.400Z,10.68
2022-09-22T17:29:10.937Z,3.55
2022-09-22T17:31:41.696Z,4.90
2022-09-22T17:34:12.053Z,4.82
2022-09-22T17:36:41.391Z,7.32
2022-09-22T17:39:10.764Z,5.72
2022-09-22T17:41:47.065Z,3.85
2022-09-22T17:44:20.907Z,3.15
2022-09-22T17:47:07.227Z,9.02
2022-09-22T17:49:54.764Z,7.32
2022-09-22T17:52:40.147Z,5.78
2022-09-22T17:55:14.228Z,4.50
2022-09-22T17:57:43.766Z,6.32
2022-09-22T18:00:14.208Z,5.70
2022-09-22T18:02:42.456Z,7.72
2022-09-22T18:05:14.133Z,6.53
2022-09-22T18:07:42.350Z,4.88
2022-09-22T18:10:18.045Z,4.50
2022-09-22T18:12:46.055Z,11.88
2022-09-22T18:15:17.138Z,3.97
2022-09-22T18:17:46.067Z,12.98
2022-09-22T18:20:18.177Z,6.97
2022-09-22T18:22:48.876Z,10.43
2022-09-22T18:25:19.396Z,9.57
2022-09-22T18:27:48.627Z,11.95
2022-09-22T18:30:23.169Z,8.52
2022-09-22T18:32:51.987Z,8.05
2022-09-22T18:35:21.801Z,8.88
2022-09-22T18:37:51.240Z,6.25
2022-09-22T18:40:19.645Z,8.00
2022-09-22T18:42:47.517Z,5.97
2022-09-22T18:45:15.458Z,9.43
2022-09-22T18:47:44.317Z,6.28
2022-09-22T18:50:13.090Z,9.05
2022-09-22T18:52:46.765Z,7.72
2022-09-22T18:55:17.351Z,12.98
2022-09-22T18:57:47.525Z,9.88
2022-09-22T19:00:16.216Z,8.02
2022-09-22T19:02:44.267Z,12.95
2022-09-22T19:05:12.465Z,9.13
2022-09-22T19:07:43.617Z,10.68
2022-09-22T19:10:16.225Z,10.75
2022-09-22T19:12:44.209Z,14.32
2022-09-22T19:15:15.280Z,12.07
2022-09-22T19:17:44.885Z,12.63
2022-09-22T19:20:15.231Z,12.38
2022-09-22T19:22:43.127Z,8.00
2022-09-22T19:25:11.675Z,9.13
2022-09-22T19:27:41.134Z,8.85
2022-09-22T19:30:12.752Z,10.40
2022-09-22T19:32:41.473Z,9.32
2022-09-22T19:35:09.987Z,11.27
2022-09-22T19:37:39.648Z,9.75
2022-09-22T19:40:10.930Z,5.22
2022-09-22T19:42:40.637Z,10.20
2022-09-22T19:45:09.430Z,5.95
2022-09-22T19:47:37.527Z,6.40
2022-09-22T19:50:06.670Z,7.78
2022-09-22T19:52:38.254Z,5.30
2022-09-22T19:55:07.925Z,5.07
2022-09-22T19:57:41.211Z,4.47
2022-09-22T20:00:13.387Z,4.82
2022-09-22T20:02:42.182Z,5.05
2022-09-22T20:05:19.226Z,5.43
2022-09-22T20:07:47.269Z,4.53
2022-09-22T20:10:17.129Z,8.63
2022-09-22T20:12:45.161Z,6.75
2022-09-22T20:15:15.177Z,4.15
2022-09-22T20:17:46.221Z,7.13
2022-09-22T20:20:15.694Z,8.52
2022-09-22T20:22:45.417Z,6.47
2022-09-22T20:25:23.131Z,7.28
2022-09-22T20:27:51.418Z,5.15
2022-09-22T20:30:21.177Z,5.60
2022-09-22T20:32:51.390Z,8.43
2022-09-22T20:35:22.014Z,8.32
2022-09-22T20:37:51.631Z,8.80
2022-09-22T20:40:23.173Z,4.72
2022-09-22T20:42:54.331Z,9.20
2022-09-22T20:45:24.838Z,7.43
2022-09-22T20:47:53.075Z,5.15
2022-09-22T20:50:21.636Z,6.78
2022-09-22T20:52:50.617Z,7.18
2022-09-22T20:55:18.869Z,11.70
2022-09-22T20:57:47.084Z,10.77
2022-09-22T21:00:16.378Z,7.75
2022-09-22T21:02:45.880Z,11.38
2022-09-22T21:05:13.981Z,5.80
2022-09-22T21:07:41.984Z,6.75
2022-09-22T21:10:28.154Z,7.75
2022-09-22T21:12:56.603Z,6.47
2022-09-22T21:15:24.670Z,5.60
2022-09-22T21:17:54.343Z,4.53
2022-09-22T21:20:23.253Z,6.10
2022-09-22T21:22:52.727Z,6.63
2022-09-22T21:25:20.847Z,10.55
2022-09-22T21:27:48.840Z,7.47
2022-09-22T21:30:16.860Z,7.95
2022-09-22T21:32:45.104Z,5.43
2022-09-22T21:35:16.788Z,4.88
2022-09-22T21:37:45.964Z,7.10
2022-09-22T21:40:14.489Z,7.82
2022-09-22T21:42:45.024Z,7.72
2022-09-22T21:45:13.119Z,7.72
2022-09-22T21:47:41.189Z,9.95
2022-09-22T21:50:10.235Z,7.95
2022-09-22T21:52:39.769Z,6.80
2022-09-22T21:55:08.814Z,8.52
2022-09-22T21:57:36.802Z,6.95
2022-09-22T22:00:07.758Z,4.50
2022-09-22T22:03:01.908Z,10.10
2022-09-22T22:05:31.080Z,5.72
2022-09-22T22:08:00.646Z,4.93
2022-09-22T22:10:28.780Z,4.75
2022-09-22T22:12:57.072Z,5.97
2022-09-22T22:15:25.274Z,6.97
2022-09-22T22:17:53.960Z,6.40
2022-09-22T22:20:21.984Z,5.22
2022-09-22T22:22:50.034Z,3.15
2022-09-22T22:25:23.783Z,5.03
2022-09-22T22:27:51.936Z,3.35
2022-09-22T22:30:19.943Z,3.17
2022-09-22T22:32:50.785Z,4.15
2022-09-22T22:35:20.142Z,5.47
2022-09-22T22:37:48.221Z,4.93
2022-09-22T22:40:18.328Z,6.75
2022-09-22T22:42:48.024Z,6.97
2022-09-22T22:45:16.220Z,3.63
2022-09-22T22:47:44.265Z,5.80
2022-09-22T22:50:12.265Z,7.60
2022-09-22T22:52:41.428Z,4.50
2022-09-22T22:55:10.718Z,4.55
2022-09-22T22:57:38.616Z,4.60
2022-09-22T23:00:10.152Z,2.55
2022-09-22T23:02:38.725Z,2.95
2022-09-22T23:05:07.788Z,4.10
2022-09-22T23:07:36.043Z,4.07
2022-09-22T23:10:07.355Z,2.58
2022-09-22T23:12:36.283Z,5.93
2022-09-22T23:15:04.495Z,3.70
2022-09-22T23:17:33.908Z,2.88
2022-09-22T23:20:02.363Z,6.82
2022-09-22T23:22:30.655Z,3.50
2022-09-22T23:24:58.697Z,4.25
2022-09-22T23:27:28.639Z,4.90
2022-09-22T23:29:57.256Z,3.38
2022-09-22T23:32:25.633Z,5.55
2022-09-22T23:34:55.003Z,5.72
2022-09-22T23:37:25.057Z,4.15
2022-09-22T23:39:53.587Z,3.33
2022-09-22T23:42:22.024Z,5.70
2022-09-22T23:44:51.610Z,2.78
2022-09-22T23:47:19.686Z,4.82
2022-09-22T23:49:48.091Z,3.42
2022-09-22T23:52:17.791Z,3.22
2022-09-22T23:54:46.558Z,9.98
2022-09-22T23:57:14.640Z,3.15
2022-09-22T23:59:42.533Z,2.50
